sensor_id;sensor_type;location;lat;lon;timestamp;temperature;humidity
27368;DHT22;14839;48.106;11.618;2024-03-23T05:01:46;9.10;92.80
27368;DHT22;14839;48.106;11.618;2024-03-23T05:04:11;9.00;92.80
27368;DHT22;14839;48.106;11.618;2024-03-23T05:06:37;9.00;93.10
27368;DHT22;14839;48.106;11.618;2024-03-23T05:09:03;9.00;93.00
27368;DHT22;14839;48.106;11.618;2024-03-23T05:11:32;9.00;92.70
27368;DHT22;14839;48.106;11.618;2024-03-23T05:13:58;9.00;92.70
27368;DHT22;14839;48.106;11.618;2024-03-23T05:16:24;8.90;93.00
27368;DHT22;14839;48.106;11.618;2024-03-23T05:18:49;8.90;93.00
27368;DHT22;14839;48.106;11.618;2024-03-23T05:21:15;8.90;92.80
27368;DHT22;14839;48.106;11.618;2024-03-23T05:23:40;8.90;92.70
27368;DHT22;14839;48.106;11.618;2024-03-23T05:26:06;8.90;92.70
27368;DHT22;14839;48.106;11.618;2024-03-23T05:28:31;9.00;92.60
27368;DHT22;14839;48.106;11.618;2024-03-23T05:30:57;9.00;92.40
27368;DHT22;14839;48.106;11.618;2024-03-23T05:33:22;9.10;92.40
27368;DHT22;14839;48.106;11.618;2024-03-23T05:35:56;9.10;92.20
27368;DHT22;14839;48.106;11.618;2024-03-23T05:38:22;9.20;92.10
27368;DHT22;14839;48.106;11.618;2024-03-23T05:40:58;9.20;91.90
27368;DHT22;14839;48.106;11.618;2024-03-23T05:43:24;9.30;91.50
27368;DHT22;14839;48.106;11.618;2024-03-23T05:46:00;9.40;91.30
27368;DHT22;14839;48.106;11.618;2024-03-23T05:48:27;9.50;90.90
27368;DHT22;14839;48.106;11.618;2024-03-23T05:50:53;9.60;90.50
27368;DHT22;14839;48.106;11.618;2024-03-23T05:53:20;9.80;90.10
27368;DHT22;14839;48.106;11.618;2024-03-23T05:55:49;9.90;89.60
27368;DHT22;14839;48.106;11.618;2024-03-23T05:58:15;10.00;89.20
27368;DHT22;14839;48.106;11.618;2024-03-23T06:00:41;10.10;88.00
27368;DHT22;14839;48.106;11.618;2024-03-23T06:03:08;10.30;87.70
27368;DHT22;14839;48.106;11.618;2024-03-23T06:05:33;10.40;87.20
27368;DHT22;14839;48.106;11.618;2024-03-23T06:07:59;10.40;86.80
27368;DHT22;14839;48.106;11.618;2024-03-23T06:10:24;10.60;86.00
27368;DHT22;14839;48.106;11.618;2024-03-23T06:12:50;10.80;85.60
27368;DHT22;14839;48.106;11.618;2024-03-23T06:15:18;11.10;84.70
27368;DHT22;14839;48.106;11.618;2024-03-23T06:17:44;11.20;83.60
27368;DHT22;14839;48.106;11.618;2024-03-23T06:20:09;11.50;83.20
27368;DHT22;14839;48.106;11.618;2024-03-23T06:22:36;11.60;81.50
27368;DHT22;14839;48.106;11.618;2024-03-23T06:25:01;11.80;81.50
27368;DHT22;14839;48.106;11.618;2024-03-23T06:27:27;12.40;79.00
27368;DHT22;14839;48.106;11.618;2024-03-23T06:29:52;13.00;76.90
27368;DHT22;14839;48.106;11.618;2024-03-23T06:32:18;14.00;74.60
27368;DHT22;14839;48.106;11.618;2024-03-23T06:34:44;14.70;71.30
27368;DHT22;14839;48.106;11.618;2024-03-23T06:37:10;15.30;68.60
27368;DHT22;14839;48.106;11.618;2024-03-23T06:39:36;15.70;67.10
27368;DHT22;14839;48.106;11.618;2024-03-23T06:42:02;16.10;65.80
27368;DHT22;14839;48.106;11.618;2024-03-23T06:44:27;16.20;66.20
27368;DHT22;14839;48.106;11.618;2024-03-23T06:46:53;16.70;64.70
27368;DHT22;14839;48.106;11.618;2024-03-23T06:49:18;17.30;62.50
27368;DHT22;14839;48.106;11.618;2024-03-23T06:51:45;17.40;61.00
27368;DHT22;14839;48.106;11.618;2024-03-23T06:54:11;16.90;62.00
27368;DHT22;14839;48.106;11.618;2024-03-23T06:56:36;16.50;63.80
27368;DHT22;14839;48.106;11.618;2024-03-23T06:59:02;16.30;65.20
27368;DHT22;14839;48.106;11.618;2024-03-23T07:01:27;16.50;64.90
27368;DHT22;14839;48.106;11.618;2024-03-23T07:03:54;16.60;65.50
27368;DHT22;14839;48.106;11.618;2024-03-23T07:06:20;16.90;64.00
27368;DHT22;14839;48.106;11.618;2024-03-23T07:08:45;17.20;63.70
27368;DHT22;14839;48.106;11.618;2024-03-23T07:11:11;17.70;64.90
27368;DHT22;14839;48.106;11.618;2024-03-23T07:13:36;18.30;62.50
27368;DHT22;14839;48.106;11.618;2024-03-23T07:16:02;18.50;60.10
27368;DHT22;14839;48.106;11.618;2024-03-23T07:18:28;18.30;60.50
27368;DHT22;14839;48.106;11.618;2024-03-23T07:20:57;18.10;60.40
27368;DHT22;14839;48.106;11.618;2024-03-23T07:23:23;17.70;61.60
27368;DHT22;14839;48.106;11.618;2024-03-23T07:26:00;17.40;62.60
27368;DHT22;14839;48.106;11.618;2024-03-23T07:28:25;17.30;62.90
27368;DHT22;14839;48.106;11.618;2024-03-23T07:31:06;17.10;63.40
27368;DHT22;14839;48.106;11.618;2024-03-23T07:33:32;16.80;65.30
27368;DHT22;14839;48.106;11.618;2024-03-23T07:35:58;16.90;64.00
27368;DHT22;14839;48.106;11.618;2024-03-23T07:38:28;16.90;65.20
27368;DHT22;14839;48.106;11.618;2024-03-23T07:41:09;16.60;65.20
27368;DHT22;14839;48.106;11.618;2024-03-23T07:43:36;16.90;64.90
27368;DHT22;14839;48.106;11.618;2024-03-23T07:46:02;16.90;64.30
27368;DHT22;14839;48.106;11.618;2024-03-23T07:48:29;16.60;65.30
27368;DHT22;14839;48.106;11.618;2024-03-23T07:51:02;16.10;67.40
27368;DHT22;14839;48.106;11.618;2024-03-23T07:53:28;15.90;69.40
27368;DHT22;14839;48.106;11.618;2024-03-23T07:56:02;15.30;74.80
27368;DHT22;14839;48.106;11.618;2024-03-23T07:58:28;14.70;82.10
27368;DHT22;14839;48.106;11.618;2024-03-23T08:01:07;14.30;85.60
27368;DHT22;14839;48.106;11.618;2024-03-23T08:03:36;13.90;86.30
27368;DHT22;14839;48.106;11.618;2024-03-23T08:08:35;13.40;89.20
27368;DHT22;14839;48.106;11.618;2024-03-23T08:11:00;13.10;90.90
27368;DHT22;14839;48.106;11.618;2024-03-23T08:13:26;12.80;92.90
27368;DHT22;14839;48.106;11.618;2024-03-23T08:15:56;12.50;94.20
27368;DHT22;14839;48.106;11.618;2024-03-23T08:18:22;12.20;94.60
27368;DHT22;14839;48.106;11.618;2024-03-23T08:21:03;12.00;94.60
27368;DHT22;14839;48.106;11.618;2024-03-23T08:23:30;11.90;94.60
27368;DHT22;14839;48.106;11.618;2024-03-23T08:26:03;11.80;94.60
27368;DHT22;14839;48.106;11.618;2024-03-23T08:28:29;11.50;94.60
27368;DHT22;14839;48.106;11.618;2024-03-23T08:30:55;11.40;94.60
27368;DHT22;14839;48.106;11.618;2024-03-23T08:33:22;11.40;94.60
27368;DHT22;14839;48.106;11.618;2024-03-23T08:35:56;11.30;94.60
27368;DHT22;14839;48.106;11.618;2024-03-23T08:38:22;11.20;94.60
27368;DHT22;14839;48.106;11.618;2024-03-23T08:40:55;11.20;94.60
27368;DHT22;14839;48.106;11.618;2024-03-23T08:43:21;11.20;94.60
27368;DHT22;14839;48.106;11.618;2024-03-23T08:45:47;10.90;94.60
27368;DHT22;14839;48.106;11.618;2024-03-23T08:48:12;10.70;94.60
27368;DHT22;14839;48.106;11.618;2024-03-23T08:50:38;10.50;94.60
27368;DHT22;14839;48.106;11.618;2024-03-23T08:53:04;10.30;94.60
27368;DHT22;14839;48.106;11.618;2024-03-23T08:55:29;10.30;94.60
27368;DHT22;14839;48.106;11.618;2024-03-23T08:57:55;10.20;94.60
27368;DHT22;14839;48.106;11.618;2024-03-23T09:00:21;10.20;94.60
27368;DHT22;14839;48.106;11.618;2024-03-23T09:02:50;10.10;94.60
27368;DHT22;14839;48.106;11.618;2024-03-23T09:05:15;10.10;94.60
27368;DHT22;14839;48.106;11.618;2024-03-23T09:07:41;10.00;94.60
27368;DHT22;14839;48.106;11.618;2024-03-23T09:10:07;10.00;94.60
27368;DHT22;14839;48.106;11.618;2024-03-23T09:12:34;10.00;94.60
27368;DHT22;14839;48.106;11.618;2024-03-23T09:15:00;10.00;94.60
27368;DHT22;14839;48.106;11.618;2024-03-23T09:17:25;10.00;94.60
27368;DHT22;14839;48.106;11.618;2024-03-23T09:19:51;10.10;94.60
27368;DHT22;14839;48.106;11.618;2024-03-23T09:22:16;10.10;94.60
27368;DHT22;14839;48.106;11.618;2024-03-23T09:24:42;10.20;94.60
27368;DHT22;14839;48.106;11.618;2024-03-23T09:27:08;10.20;94.60
27368;DHT22;14839;48.106;11.618;2024-03-23T09:29:33;10.30;94.60
27368;DHT22;14839;48.106;11.618;2024-03-23T09:31:59;10.30;94.60
27368;DHT22;14839;48.106;11.618;2024-03-23T09:34:24;10.30;94.60
27368;DHT22;14839;48.106;11.618;2024-03-23T09:36:53;10.30;94.60
27368;DHT22;14839;48.106;11.618;2024-03-23T09:39:19;10.50;94.60
27368;DHT22;14839;48.106;11.618;2024-03-23T09:41:45;10.50;94.60
27368;DHT22;14839;48.106;11.618;2024-03-23T09:44:11;10.40;94.60
27368;DHT22;14839;48.106;11.618;2024-03-23T09:46:37;10.20;94.60
27368;DHT22;14839;48.106;11.618;2024-03-23T09:49:07;10.00;94.60
27368;DHT22;14839;48.106;11.618;2024-03-23T09:51:35;9.90;94.60
27368;DHT22;14839;48.106;11.618;2024-03-23T09:54:01;9.80;94.60
27368;DHT22;14839;48.106;11.618;2024-03-23T09:56:27;9.50;94.60
27368;DHT22;14839;48.106;11.618;2024-03-23T09:59:00;9.40;94.60
27368;DHT22;14839;48.106;11.618;2024-03-23T10:01:26;9.50;94.60
27368;DHT22;14839;48.106;11.618;2024-03-23T10:03:51;9.50;94.60
27368;DHT22;14839;48.106;11.618;2024-03-23T10:06:21;9.40;94.60
27368;DHT22;14839;48.106;11.618;2024-03-23T10:08:47;9.50;94.60
27368;DHT22;14839;48.106;11.618;2024-03-23T10:11:14;9.30;94.60
27368;DHT22;14839;48.106;11.618;2024-03-23T10:13:44;9.10;94.60
27368;DHT22;14839;48.106;11.618;2024-03-23T10:16:11;9.10;94.60
27368;DHT22;14839;48.106;11.618;2024-03-23T10:18:38;9.10;94.60
27368;DHT22;14839;48.106;11.618;2024-03-23T10:23:34;9.20;94.60
27368;DHT22;14839;48.106;11.618;2024-03-23T10:29:00;9.40;94.60
27368;DHT22;14839;48.106;11.618;2024-03-23T10:31:30;9.40;94.60
27368;DHT22;14839;48.106;11.618;2024-03-23T10:33:56;9.50;94.60
27368;DHT22;14839;48.106;11.618;2024-03-23T10:36:23;9.50;94.60
27368;DHT22;14839;48.106;11.618;2024-03-23T10:38:53;9.60;94.60
27368;DHT22;14839;48.106;11.618;2024-03-23T10:41:19;9.60;94.60
27368;DHT22;14839;48.106;11.618;2024-03-23T10:43:46;9.60;94.60
27368;DHT22;14839;48.106;11.618;2024-03-23T10:46:12;9.80;94.60
27368;DHT22;14839;48.106;11.618;2024-03-23T10:48:37;9.70;94.60
27368;DHT22;14839;48.106;11.618;2024-03-23T10:51:04;9.40;94.60
27368;DHT22;14839;48.106;11.618;2024-03-23T10:53:33;9.10;94.60
27368;DHT22;14839;48.106;11.618;2024-03-23T10:55:59;8.80;94.60
27368;DHT22;14839;48.106;11.618;2024-03-23T10:58:37;8.70;94.60
27368;DHT22;14839;48.106;11.618;2024-03-23T11:01:03;8.70;94.60
27368;DHT22;14839;48.106;11.618;2024-03-23T11:03:30;8.60;94.60
27368;DHT22;14839;48.106;11.618;2024-03-23T11:05:56;8.60;94.60
27368;DHT22;14839;48.106;11.618;2024-03-23T11:11:20;8.80;94.60
27368;DHT22;14839;48.106;11.618;2024-03-23T11:13:48;8.90;94.60
27368;DHT22;14839;48.106;11.618;2024-03-23T11:16:28;9.00;94.60
27368;DHT22;14839;48.106;11.618;2024-03-23T11:19:35;9.10;94.60
27368;DHT22;14839;48.106;11.618;2024-03-23T11:22:04;9.20;94.60
27368;DHT22;14839;48.106;11.618;2024-03-23T11:24:33;9.20;94.60
27368;DHT22;14839;48.106;11.618;2024-03-23T11:27:00;9.10;94.60
27368;DHT22;14839;48.106;11.618;2024-03-23T11:29:27;9.30;94.60
27368;DHT22;14839;48.106;11.618;2024-03-23T11:31:55;9.40;94.60
27368;DHT22;14839;48.106;11.618;2024-03-23T11:34:21;9.40;94.60
27368;DHT22;14839;48.106;11.618;2024-03-23T11:36:47;9.60;94.60
27368;DHT22;14839;48.106;11.618;2024-03-23T11:39:14;9.60;94.60
27368;DHT22;14839;48.106;11.618;2024-03-23T11:41:46;9.70;94.60
27368;DHT22;14839;48.106;11.618;2024-03-23T11:44:19;9.70;94.60
27368;DHT22;14839;48.106;11.618;2024-03-23T11:46:46;9.70;94.60
27368;DHT22;14839;48.106;11.618;2024-03-23T11:49:25;9.70;94.60
27368;DHT22;14839;48.106;11.618;2024-03-23T11:51:55;9.70;94.60
27368;DHT22;14839;48.106;11.618;2024-03-23T11:54:25;9.90;94.60
27368;DHT22;14839;48.106;11.618;2024-03-23T11:56:56;10.10;94.60
27368;DHT22;14839;48.106;11.618;2024-03-23T11:59:34;10.20;94.60
27368;DHT22;14839;48.106;11.618;2024-03-23T12:02:01;10.30;94.60
27368;DHT22;14839;48.106;11.618;2024-03-23T12:04:31;10.40;94.60
27368;DHT22;14839;48.106;11.618;2024-03-23T12:07:14;10.50;94.60
27368;DHT22;14839;48.106;11.618;2024-03-23T12:09:40;10.40;94.60
27368;DHT22;14839;48.106;11.618;2024-03-23T12:12:08;10.40;94.60
27368;DHT22;14839;48.106;11.618;2024-03-23T12:14:34;10.60;94.60
27368;DHT22;14839;48.106;11.618;2024-03-23T12:17:13;10.60;93.20
27368;DHT22;14839;48.106;11.618;2024-03-23T12:19:40;10.60;93.50
27368;DHT22;14839;48.106;11.618;2024-03-23T12:22:07;10.40;93.90
27368;DHT22;14839;48.106;11.618;2024-03-23T12:24:33;10.30;94.20
27368;DHT22;14839;48.106;11.618;2024-03-23T12:27:05;10.30;94.40
27368;DHT22;14839;48.106;11.618;2024-03-23T12:29:34;10.10;94.60
27368;DHT22;14839;48.106;11.618;2024-03-23T12:32:01;10.00;94.50
27368;DHT22;14839;48.106;11.618;2024-03-23T12:34:27;9.90;94.40
27368;DHT22;14839;48.106;11.618;2024-03-23T12:36:52;9.90;94.60
27368;DHT22;14839;48.106;11.618;2024-03-23T12:39:18;9.80;93.50
27368;DHT22;14839;48.106;11.618;2024-03-23T12:41:47;9.70;93.30
27368;DHT22;14839;48.106;11.618;2024-03-23T12:44:12;9.80;94.30
27368;DHT22;14839;48.106;11.618;2024-03-23T12:46:42;10.00;93.70
27368;DHT22;14839;48.106;11.618;2024-03-23T12:49:08;10.10;92.90
27368;DHT22;14839;48.106;11.618;2024-03-23T12:51:34;10.20;92.60
27368;DHT22;14839;48.106;11.618;2024-03-23T12:53:59;10.20;91.70
27368;DHT22;14839;48.106;11.618;2024-03-23T12:56:25;10.10;87.50
27368;DHT22;14839;48.106;11.618;2024-03-23T12:58:50;10.20;86.90
27368;DHT22;14839;48.106;11.618;2024-03-23T13:01:20;10.20;88.10
27368;DHT22;14839;48.106;11.618;2024-03-23T13:03:47;10.40;87.80
27368;DHT22;14839;48.106;11.618;2024-03-23T13:06:12;10.60;87.80
27368;DHT22;14839;48.106;11.618;2024-03-23T13:08:38;10.80;86.80
27368;DHT22;14839;48.106;11.618;2024-03-23T13:11:05;11.00;86.90
27368;DHT22;14839;48.106;11.618;2024-03-23T13:13:31;11.20;88.00
27368;DHT22;14839;48.106;11.618;2024-03-23T13:15:58;11.30;83.60
27368;DHT22;14839;48.106;11.618;2024-03-23T13:18:24;11.20;81.70
27368;DHT22;14839;48.106;11.618;2024-03-23T13:20:49;11.10;83.50
27368;DHT22;14839;48.106;11.618;2024-03-23T13:23:15;11.20;84.40
27368;DHT22;14839;48.106;11.618;2024-03-23T13:25:40;11.30;81.50
27368;DHT22;14839;48.106;11.618;2024-03-23T13:28:06;11.10;79.90
27368;DHT22;14839;48.106;11.618;2024-03-23T13:30:33;10.90;79.90
27368;DHT22;14839;48.106;11.618;2024-03-23T13:32:58;10.60;78.70
27368;DHT22;14839;48.106;11.618;2024-03-23T13:35:24;10.60;78.40
27368;DHT22;14839;48.106;11.618;2024-03-23T13:37:49;10.60;78.40
27368;DHT22;14839;48.106;11.618;2024-03-23T13:40:15;10.70;79.90
27368;DHT22;14839;48.106;11.618;2024-03-23T13:42:40;10.60;78.50
27368;DHT22;14839;48.106;11.618;2024-03-23T13:45:06;10.60;79.00
27368;DHT22;14839;48.106;11.618;2024-03-23T13:47:32;10.60;79.30
27368;DHT22;14839;48.106;11.618;2024-03-23T13:49:57;10.60;78.20
27368;DHT22;14839;48.106;11.618;2024-03-23T13:52:23;10.40;77.50
27368;DHT22;14839;48.106;11.618;2024-03-23T13:54:51;10.30;78.10
27368;DHT22;14839;48.106;11.618;2024-03-23T13:57:17;10.10;79.60
27368;DHT22;14839;48.106;11.618;2024-03-23T13:59:45;10.00;80.60
27368;DHT22;14839;48.106;11.618;2024-03-23T14:02:11;9.90;81.20
27368;DHT22;14839;48.106;11.618;2024-03-23T14:04:39;9.80;81.40
27368;DHT22;14839;48.106;11.618;2024-03-23T14:07:05;9.60;82.40
27368;DHT22;14839;48.106;11.618;2024-03-23T14:09:32;9.40;86.80
27368;DHT22;14839;48.106;11.618;2024-03-23T14:11:58;8.90;92.00
27368;DHT22;14839;48.106;11.618;2024-03-23T14:14:25;8.30;94.60
27368;DHT22;14839;48.106;11.618;2024-03-23T14:16:51;8.00;94.60
27368;DHT22;14839;48.106;11.618;2024-03-23T14:19:16;7.60;94.60
27368;DHT22;14839;48.106;11.618;2024-03-23T14:21:42;7.30;94.60
27368;DHT22;14839;48.106;11.618;2024-03-23T14:24:07;7.30;94.60
27368;DHT22;14839;48.106;11.618;2024-03-23T14:26:34;7.20;94.60
27368;DHT22;14839;48.106;11.618;2024-03-23T14:29:00;7.30;94.60
27368;DHT22;14839;48.106;11.618;2024-03-23T14:31:26;7.40;94.60
27368;DHT22;14839;48.106;11.618;2024-03-23T14:33:51;7.40;94.60
27368;DHT22;14839;48.106;11.618;2024-03-23T14:36:17;7.50;94.60
27368;DHT22;14839;48.106;11.618;2024-03-23T14:38:47;7.60;94.60
27368;DHT22;14839;48.106;11.618;2024-03-23T14:41:13;7.60;94.60
27368;DHT22;14839;48.106;11.618;2024-03-23T14:43:38;7.60;94.60
27368;DHT22;14839;48.106;11.618;2024-03-23T14:46:14;7.70;94.60
27368;DHT22;14839;48.106;11.618;2024-03-23T14:48:41;7.70;94.60
27368;DHT22;14839;48.106;11.618;2024-03-23T14:51:08;7.70;94.60
27368;DHT22;14839;48.106;11.618;2024-03-23T14:53:35;7.80;94.60
27368;DHT22;14839;48.106;11.618;2024-03-23T14:56:02;7.80;94.60
27368;DHT22;14839;48.106;11.618;2024-03-23T14:58:28;7.80;94.60
27368;DHT22;14839;48.106;11.618;2024-03-23T15:01:01;7.70;94.60
27368;DHT22;14839;48.106;11.618;2024-03-23T15:03:27;7.80;94.60
27368;DHT22;14839;48.106;11.618;2024-03-23T15:05:58;7.60;94.60
27368;DHT22;14839;48.106;11.618;2024-03-23T15:08:24;7.30;93.70
27368;DHT22;14839;48.106;11.618;2024-03-23T15:10:50;7.10;94.60
27368;DHT22;14839;48.106;11.618;2024-03-23T15:13:16;6.90;94.50
27368;DHT22;14839;48.106;11.618;2024-03-23T15:15:42;6.80;94.60
27368;DHT22;14839;48.106;11.618;2024-03-23T15:18:14;6.70;94.60
27368;DHT22;14839;48.106;11.618;2024-03-23T15:20:52;6.60;94.60
27368;DHT22;14839;48.106;11.618;2024-03-23T15:23:18;6.60;94.60
27368;DHT22;14839;48.106;11.618;2024-03-23T15:25:43;6.60;94.60
27368;DHT22;14839;48.106;11.618;2024-03-23T15:28:09;6.70;94.60
27368;DHT22;14839;48.106;11.618;2024-03-23T15:30:35;6.70;94.60
27368;DHT22;14839;48.106;11.618;2024-03-23T15:33:00;6.70;94.60
27368;DHT22;14839;48.106;11.618;2024-03-23T15:35:26;6.70;94.60
27368;DHT22;14839;48.106;11.618;2024-03-23T15:37:51;6.80;94.60
27368;DHT22;14839;48.106;11.618;2024-03-23T15:40:17;6.80;94.60
27368;DHT22;14839;48.106;11.618;2024-03-23T15:42:43;6.90;94.60
27368;DHT22;14839;48.106;11.618;2024-03-23T15:45:09;7.00;94.60
27368;DHT22;14839;48.106;11.618;2024-03-23T15:47:37;7.20;94.60
27368;DHT22;14839;48.106;11.618;2024-03-23T15:50:03;7.10;94.60
27368;DHT22;14839;48.106;11.618;2024-03-23T15:52:34;6.90;94.60
27368;DHT22;14839;48.106;11.618;2024-03-23T15:55:01;7.10;94.60
27368;DHT22;14839;48.106;11.618;2024-03-23T15:57:26;7.00;94.60
27368;DHT22;14839;48.106;11.618;2024-03-23T15:59:52;7.20;94.60
27368;DHT22;14839;48.106;11.618;2024-03-23T16:02:17;7.30;94.60
27368;DHT22;14839;48.106;11.618;2024-03-23T16:04:43;7.40;94.60
27368;DHT22;14839;48.106;11.618;2024-03-23T16:07:10;7.50;94.60
27368;DHT22;14839;48.106;11.618;2024-03-23T16:09:36;7.50;94.60
27368;DHT22;14839;48.106;11.618;2024-03-23T16:12:03;7.50;94.60
27368;DHT22;14839;48.106;11.618;2024-03-23T16:14:29;7.50;94.60
27368;DHT22;14839;48.106;11.618;2024-03-23T16:16:54;7.40;94.60
27368;DHT22;14839;48.106;11.618;2024-03-23T16:19:20;7.40;94.60
27368;DHT22;14839;48.106;11.618;2024-03-23T16:21:47;7.50;94.60
27368;DHT22;14839;48.106;11.618;2024-03-23T16:24:13;7.50;94.60
27368;DHT22;14839;48.106;11.618;2024-03-23T16:26:38;7.50;94.60
27368;DHT22;14839;48.106;11.618;2024-03-23T16:29:04;7.40;94.60
27368;DHT22;14839;48.106;11.618;2024-03-23T16:31:30;7.40;94.60
27368;DHT22;14839;48.106;11.618;2024-03-23T16:33:55;7.40;94.60
27368;DHT22;14839;48.106;11.618;2024-03-23T16:36:21;7.40;94.60
27368;DHT22;14839;48.106;11.618;2024-03-23T16:38:47;7.50;94.60
27368;DHT22;14839;48.106;11.618;2024-03-23T16:41:14;7.50;94.60
27368;DHT22;14839;48.106;11.618;2024-03-23T16:43:42;7.40;94.60
27368;DHT22;14839;48.106;11.618;2024-03-23T16:46:10;7.30;94.60
27368;DHT22;14839;48.106;11.618;2024-03-23T16:48:40;7.40;94.60
27368;DHT22;14839;48.106;11.618;2024-03-23T16:51:07;7.40;94.60
27368;DHT22;14839;48.106;11.618;2024-03-23T16:53:33;7.40;94.60
27368;DHT22;14839;48.106;11.618;2024-03-23T16:56:01;7.30;94.60
27368;DHT22;14839;48.106;11.618;2024-03-23T16:58:28;7.20;94.60
27368;DHT22;14839;48.106;11.618;2024-03-23T17:00:55;7.10;94.60
27368;DHT22;14839;48.106;11.618;2024-03-23T17:03:24;7.20;94.60
27368;DHT22;14839;48.106;11.618;2024-03-23T17:05:50;7.10;94.60
27368;DHT22;14839;48.106;11.618;2024-03-23T17:08:19;7.00;94.60
27368;DHT22;14839;48.106;11.618;2024-03-23T17:10:45;6.80;94.60
27368;DHT22;14839;48.106;11.618;2024-03-23T17:13:11;6.60;94.60
27368;DHT22;14839;48.106;11.618;2024-03-23T17:15:45;6.40;94.60
27368;DHT22;14839;48.106;11.618;2024-03-23T17:18:11;6.30;94.60
27368;DHT22;14839;48.106;11.618;2024-03-23T17:20:37;6.20;94.60
27368;DHT22;14839;48.106;11.618;2024-03-23T17:23:02;6.20;94.60
27368;DHT22;14839;48.106;11.618;2024-03-23T17:25:28;6.00;94.60
27368;DHT22;14839;48.106;11.618;2024-03-23T17:27:53;6.00;94.60
27368;DHT22;14839;48.106;11.618;2024-03-23T17:30:19;6.00;94.60
27368;DHT22;14839;48.106;11.618;2024-03-23T17:32:46;6.10;94.60
27368;DHT22;14839;48.106;11.618;2024-03-23T17:35:12;6.10;94.60
27368;DHT22;14839;48.106;11.618;2024-03-23T17:37:38;6.00;94.60
27368;DHT22;14839;48.106;11.618;2024-03-23T17:40:05;5.60;94.60
27368;DHT22;14839;48.106;11.618;2024-03-23T17:42:36;5.50;94.60
27368;DHT22;14839;48.106;11.618;2024-03-23T17:45:03;5.30;94.60
27368;DHT22;14839;48.106;11.618;2024-03-23T17:47:37;5.10;94.60
27368;DHT22;14839;48.106;11.618;2024-03-23T17:50:03;5.00;94.60
27368;DHT22;14839;48.106;11.618;2024-03-23T17:52:29;5.00;94.60
27368;DHT22;14839;48.106;11.618;2024-03-23T17:54:54;5.00;94.60
27368;DHT22;14839;48.106;11.618;2024-03-23T17:57:21;5.00;94.60
27368;DHT22;14839;48.106;11.618;2024-03-23T17:59:47;5.00;94.60
27368;DHT22;14839;48.106;11.618;2024-03-23T18:02:14;5.00;94.60
27368;DHT22;14839;48.106;11.618;2024-03-23T18:04:41;5.00;94.60
27368;DHT22;14839;48.106;11.618;2024-03-23T18:07:06;5.00;94.60
27368;DHT22;14839;48.106;11.618;2024-03-23T18:09:32;5.10;94.60
27368;DHT22;14839;48.106;11.618;2024-03-23T18:11:58;5.00;94.60
27368;DHT22;14839;48.106;11.618;2024-03-23T18:14:23;5.00;94.60
27368;DHT22;14839;48.106;11.618;2024-03-23T18:16:49;5.00;94.60
27368;DHT22;14839;48.106;11.618;2024-03-23T18:19:15;5.10;94.60
27368;DHT22;14839;48.106;11.618;2024-03-23T18:21:41;5.10;94.60
27368;DHT22;14839;48.106;11.618;2024-03-23T18:24:06;5.00;94.60
27368;DHT22;14839;48.106;11.618;2024-03-23T18:26:32;5.10;94.60
27368;DHT22;14839;48.106;11.618;2024-03-23T18:28:57;5.00;94.60
27368;DHT22;14839;48.106;11.618;2024-03-23T18:31:23;5.00;94.60
27368;DHT22;14839;48.106;11.618;2024-03-23T18:33:48;5.00;94.60
27368;DHT22;14839;48.106;11.618;2024-03-23T18:36:14;5.10;94.60
27368;DHT22;14839;48.106;11.618;2024-03-23T18:38:40;5.10;94.60
27368;DHT22;14839;48.106;11.618;2024-03-23T18:41:05;5.00;94.60
27368;DHT22;14839;48.106;11.618;2024-03-23T18:43:31;4.80;94.60
27368;DHT22;14839;48.106;11.618;2024-03-23T18:45:58;4.80;94.60
27368;DHT22;14839;48.106;11.618;2024-03-23T18:48:24;4.90;94.60
27368;DHT22;14839;48.106;11.618;2024-03-23T18:50:50;4.90;94.60
27368;DHT22;14839;48.106;11.618;2024-03-23T18:53:16;4.80;94.60
27368;DHT22;14839;48.106;11.618;2024-03-23T18:55:54;4.80;94.60
27368;DHT22;14839;48.106;11.618;2024-03-23T18:58:20;4.90;94.60
27368;DHT22;14839;48.106;11.618;2024-03-23T19:00:46;4.90;94.60
27368;DHT22;14839;48.106;11.618;2024-03-23T19:03:12;4.80;94.60
27368;DHT22;14839;48.106;11.618;2024-03-23T19:05:37;4.70;94.60
27368;DHT22;14839;48.106;11.618;2024-03-23T19:08:03;4.80;94.60
27368;DHT22;14839;48.106;11.618;2024-03-23T19:10:29;4.70;94.60
27368;DHT22;14839;48.106;11.618;2024-03-23T19:12:55;4.60;94.60
27368;DHT22;14839;48.106;11.618;2024-03-23T19:15:20;4.70;94.60
27368;DHT22;14839;48.106;11.618;2024-03-23T19:17:46;4.60;94.60
27368;DHT22;14839;48.106;11.618;2024-03-23T19:20:12;4.60;94.60
27368;DHT22;14839;48.106;11.618;2024-03-23T19:22:39;4.60;94.60
27368;DHT22;14839;48.106;11.618;2024-03-23T19:25:05;4.70;94.60
27368;DHT22;14839;48.106;11.618;2024-03-23T19:27:37;4.60;94.60
27368;DHT22;14839;48.106;11.618;2024-03-23T19:30:05;4.70;94.60
27368;DHT22;14839;48.106;11.618;2024-03-23T19:32:31;4.70;94.60
27368;DHT22;14839;48.106;11.618;2024-03-23T19:34:57;4.70;94.60
27368;DHT22;14839;48.106;11.618;2024-03-23T19:37:22;4.70;94.60
27368;DHT22;14839;48.106;11.618;2024-03-23T19:39:48;4.60;94.60
27368;DHT22;14839;48.106;11.618;2024-03-23T19:42:13;4.70;94.60
27368;DHT22;14839;48.106;11.618;2024-03-23T19:44:41;4.70;94.60
27368;DHT22;14839;48.106;11.618;2024-03-23T19:47:06;4.70;94.60
27368;DHT22;14839;48.106;11.618;2024-03-23T19:49:32;4.70;94.60
27368;DHT22;14839;48.106;11.618;2024-03-23T19:51:58;4.60;94.60
27368;DHT22;14839;48.106;11.618;2024-03-23T19:54:23;4.70;94.60
27368;DHT22;14839;48.106;11.618;2024-03-23T19:56:49;4.70;94.60
27368;DHT22;14839;48.106;11.618;2024-03-23T19:59:14;4.70;94.60
27368;DHT22;14839;48.106;11.618;2024-03-23T20:01:40;4.70;94.60
27368;DHT22;14839;48.106;11.618;2024-03-23T20:04:05;4.70;94.60
27368;DHT22;14839;48.106;11.618;2024-03-23T20:06:31;4.60;94.60
27368;DHT22;14839;48.106;11.618;2024-03-23T20:08:56;4.50;94.60
27368;DHT22;14839;48.106;11.618;2024-03-23T20:11:25;4.40;94.60
27368;DHT22;14839;48.106;11.618;2024-03-23T20:13:51;4.30;94.60
27368;DHT22;14839;48.106;11.618;2024-03-23T20:16:17;4.20;94.60
27368;DHT22;14839;48.106;11.618;2024-03-23T20:18:42;4.20;94.60
27368;DHT22;14839;48.106;11.618;2024-03-23T20:21:08;4.20;94.60
27368;DHT22;14839;48.106;11.618;2024-03-23T20:23:33;4.20;94.60
27368;DHT22;14839;48.106;11.618;2024-03-23T20:25:59;4.20;94.60
27368;DHT22;14839;48.106;11.618;2024-03-23T20:28:26;4.30;94.60
27368;DHT22;14839;48.106;11.618;2024-03-23T20:30:59;4.30;94.60
27368;DHT22;14839;48.106;11.618;2024-03-23T20:33:25;4.30;94.60
27368;DHT22;14839;48.106;11.618;2024-03-23T20:35:51;4.30;94.60